Time;durP1;ratioP1;P1;durP2;ratioP2;P2;SDS_P1;SDS_P2;PMS_P1;PMS_P2;Temp;Humidity;BMP_temperature;BMP_pressure;BME280_temperature;BME280_humidity;BME280_pressure;Samples;Min_cycle;Max_cycle;Signal;HPM_P1;HPM_P2
2023/04/28 00:01:16;;;;;;;2.42;1.55;;;19.40;53.90;;;;;;5115585;28;20126;-65
2023/04/28 00:03:42;;;;;;;3.05;1.50;;;19.40;53.90;;;;;;5115565;28;20044;-66
2023/04/28 00:06:07;;;;;;;3.35;1.40;;;19.40;53.90;;;;;;5114870;28;20135;-65
2023/04/28 00:08:33;;;;;;;2.65;1.40;;;19.40;53.90;;;;;;5115767;28;20486;-65
2023/04/28 00:10:59;;;;;;;2.17;1.33;;;19.40;53.90;;;;;;5115749;28;20148;-66
2023/04/28 00:13:25;;;;;;;2.75;1.42;;;19.40;53.90;;;;;;5114862;28;20071;-65
2023/04/28 00:15:54;;;;;;;4.18;1.33;;;19.40;53.90;;;;;;5115697;28;20367;-65
2023/04/28 00:18:20;;;;;;;3.78;1.40;;;19.40;53.90;;;;;;5114772;28;20089;-66
2023/04/28 00:20:45;;;;;;;2.08;1.27;;;19.40;53.90;;;;;;5115728;28;20047;-66
2023/04/28 00:23:11;;;;;;;2.97;1.30;;;19.40;53.90;;;;;;5115201;28;20039;-65
2023/04/28 00:25:36;;;;;;;1.73;1.23;;;19.40;53.90;;;;;;5114687;28;20058;-65
2023/04/28 00:28:02;;;;;;;2.75;1.17;;;19.30;53.80;;;;;;5115155;28;20032;-66
2023/04/28 00:30:29;;;;;;;2.72;1.33;;;19.40;53.90;;;;;;5115500;28;20127;-65
2023/04/28 00:32:55;;;;;;;2.42;1.30;;;19.30;53.80;;;;;;5113809;28;20591;-65
2023/04/28 00:35:20;;;;;;;1.80;1.15;;;19.30;53.70;;;;;;5115476;28;20039;-65
2023/04/28 00:37:46;;;;;;;2.47;1.40;;;19.30;53.80;;;;;;5115327;28;20031;-66
2023/04/28 00:40:12;;;;;;;2.55;1.30;;;19.30;53.80;;;;;;5113252;28;20036;-65
2023/04/28 00:42:37;;;;;;;2.72;1.50;;;19.30;53.70;;;;;;5114824;28;20050;-65
2023/04/28 00:45:05;;;;;;;3.13;1.50;;;19.30;53.70;;;;;;5113805;28;20047;-65
2023/04/28 00:47:34;;;;;;;;;;;19.30;53.70;;;;;;5114461;27;20051;-65
2023/04/28 00:50:00;;;;;;;3.42;1.30;;;19.30;53.70;;;;;;5113863;28;19923;-66
2023/04/28 00:52:26;;;;;;;2.97;1.42;;;19.30;53.80;;;;;;5114961;28;20031;-65
2023/04/28 00:54:52;;;;;;;2.22;1.20;;;19.30;53.80;;;;;;5114366;28;20487;-65
2023/04/28 00:57:18;;;;;;;2.88;1.35;;;19.30;53.70;;;;;;5115016;28;20046;-65
2023/04/28 00:59:44;;;;;;;3.15;1.55;;;19.30;53.80;;;;;;5114461;28;20047;-65
2023/04/28 01:02:16;;;;;;;1.90;1.27;;;19.20;53.70;;;;;;5113752;28;20055;-66
2023/04/28 01:04:44;;;;;;;2.75;1.30;;;19.30;54.50;;;;;;5113192;28;20121;-65
2023/04/28 01:07:10;;;;;;;2.08;1.48;;;19.30;53.70;;;;;;5096654;28;20122;-65
2023/04/28 01:09:36;;;;;;;2.25;1.00;;;19.20;53.70;;;;;;5113722;28;20119;-65
2023/04/28 01:12:01;;;;;;;2.78;1.30;;;19.20;53.70;;;;;;5113174;28;20047;-65
2023/04/28 01:14:27;;;;;;;2.13;1.30;;;19.30;53.70;;;;;;5113693;28;20040;-65
2023/04/28 01:16:53;;;;;;;2.53;1.10;;;19.20;53.70;;;;;;5114750;28;20489;-65
2023/04/28 01:19:21;;;;;;;2.88;1.23;;;19.20;53.70;;;;;;5113948;28;20050;-65
2023/04/28 01:21:50;;;;;;;2.05;1.15;;;19.20;53.70;;;;;;5113930;28;20479;-65
2023/04/28 01:24:16;;;;;;;3.63;1.70;;;19.20;53.70;;;;;;5106002;28;20056;-65
2023/04/28 01:26:41;;;;;;;2.92;1.25;;;19.20;53.70;;;;;;5094159;28;20052;-65
2023/04/28 01:29:07;;;;;;;2.47;1.42;;;19.20;53.70;;;;;;5092799;28;20582;-66
2023/04/28 01:31:32;;;;;;;2.13;1.00;;;19.20;53.70;;;;;;5093907;28;20044;-65
2023/04/28 01:33:58;;;;;;;2.75;1.30;;;19.20;53.70;;;;;;5093270;28;20181;-65
2023/04/28 01:36:26;;;;;;;2.00;1.27;;;19.20;53.70;;;;;;5092875;28;20039;-65
2023/04/28 01:38:51;;;;;;;2.42;1.40;;;19.20;53.70;;;;;;5102383;28;20047;-65
2023/04/28 01:41:17;;;;;;;2.47;1.30;;;19.20;53.70;;;;;;5112486;28;20055;-65
2023/04/28 01:43:42;;;;;;;2.65;1.35;;;19.20;53.70;;;;;;5113168;28;20044;-65
2023/04/28 01:46:11;;;;;;;2.33;1.38;;;19.20;53.70;;;;;;5113760;28;20376;-65
2023/04/28 01:48:37;;;;;;;2.65;1.65;;;19.20;53.70;;;;;;5113384;28;20035;-65
2023/04/28 01:51:03;;;;;;;2.30;1.33;;;19.20;53.70;;;;;;5112547;28;20391;-65
2023/04/28 01:53:28;;;;;;;2.47;1.20;;;19.10;53.70;;;;;;5112245;28;20097;-65
2023/04/28 01:55:54;;;;;;;3.50;1.48;;;19.10;53.60;;;;;;5114030;28;20046;-65
2023/04/28 01:58:19;;;;;;;2.50;1.27;;;19.10;53.60;;;;;;5112909;28;20043;-65
2023/04/28 02:00:45;;;;;;;2.25;1.27;;;19.10;53.60;;;;;;5107847;28;20048;-65
2023/04/28 02:03:11;;;;;;;3.90;1.30;;;19.10;53.60;;;;;;5091184;28;20047;-65
2023/04/28 02:05:36;;;;;;;3.08;1.23;;;19.10;53.60;;;;;;5092172;28;20044;-65
2023/04/28 02:08:02;;;;;;;2.03;1.35;;;19.10;53.50;;;;;;5091954;28;20040;-65
2023/04/28 02:10:27;;;;;;;3.65;2.05;;;19.10;53.40;;;;;;5092868;28;20114;-65
2023/04/28 02:12:53;;;;;;;3.85;1.30;;;19.10;53.40;;;;;;5092540;28;20117;-65
2023/04/28 02:15:18;;;;;;;2.53;1.30;;;19.10;53.40;;;;;;5092499;28;20062;-65
2023/04/28 02:17:44;;;;;;;2.63;1.10;;;19.20;53.40;;;;;;5090981;28;20046;-66
2023/04/28 02:20:10;;;;;;;2.65;1.20;;;19.10;53.50;;;;;;5092817;28;20047;-65
2023/04/28 02:22:35;;;;;;;1.45;1.13;;;19.10;53.40;;;;;;5092853;28;20044;-65
2023/04/28 02:25:01;;;;;;;1.67;1.20;;;19.20;53.50;;;;;;5091841;28;20882;-66
2023/04/28 02:27:27;;;;;;;1.83;1.17;;;19.20;53.40;;;;;;5091832;28;20066;-65
2023/04/28 02:29:53;;;;;;;3.28;1.35;;;19.20;53.40;;;;;;5092808;28;20406;-65
2023/04/28 02:32:18;;;;;;;2.28;1.30;;;19.20;53.40;;;;;;5092099;28;20498;-65
2023/04/28 02:34:44;;;;;;;2.47;1.20;;;19.20;53.40;;;;;;5105369;28;20482;-66
2023/04/28 02:37:10;;;;;;;2.45;1.10;;;19.20;53.40;;;;;;5112759;28;20395;-65
2023/04/28 02:39:36;;;;;;;2.47;1.20;;;19.20;53.40;;;;;;5112296;28;20054;-67
2023/04/28 02:42:04;;;;;;;1.80;1.15;;;19.20;53.40;;;;;;5112586;28;20047;-65
2023/04/28 02:44:29;;;;;;;3.08;1.30;;;19.20;53.40;;;;;;5112850;28;20040;-65
2023/04/28 02:46:55;;;;;;;2.55;1.30;;;19.30;53.50;;;;;;5112152;28;20040;-66
2023/04/28 02:49:20;;;;;;;2.55;1.15;;;19.30;53.40;;;;;;5111643;28;20040;-65
2023/04/28 02:51:46;;;;;;;2.17;1.27;;;19.20;53.40;;;;;;5113032;28;20031;-65
2023/04/28 02:54:12;;;;;;;1.50;1.08;;;19.30;53.40;;;;;;5111799;28;20482;-65
2023/04/28 02:56:39;;;;;;;1.38;1.17;;;19.30;53.40;;;;;;5112761;28;20395;-65
2023/04/28 02:59:05;;;;;;;2.55;1.30;;;19.30;53.40;;;;;;5112654;28;20051;-68
2023/04/28 03:01:31;;;;;;;2.72;1.40;;;19.30;53.40;;;;;;5112135;28;20047;-65
2023/04/28 03:03:56;;;;;;;1.75;1.13;;;19.40;53.40;;;;;;5116135;28;20058;-66
2023/04/28 03:06:22;;;;;;;2.78;1.10;;;19.40;53.40;;;;;;5115461;28;20046;-66
2023/04/28 03:08:47;;;;;;;2.15;1.05;;;19.40;53.40;;;;;;5116335;28;20043;-65
2023/04/28 03:11:13;;;;;;;1.40;1.10;;;19.40;53.40;;;;;;5116575;28;20043;-65
2023/04/28 03:13:38;;;;;;;2.42;1.20;;;19.40;53.30;;;;;;5116661;28;20039;-65
2023/04/28 03:16:05;;;;;;;1.50;0.98;;;19.50;53.40;;;;;;5116187;28;20035;-65
2023/04/28 03:18:30;;;;;;;2.88;1.10;;;19.50;53.40;;;;;;5115106;28;20036;-66
2023/04/28 03:20:56;;;;;;;2.67;1.27;;;19.50;53.30;;;;;;5116165;28;20045;-66
2023/04/28 03:23:21;;;;;;;1.88;1.20;;;19.50;53.40;;;;;;5116323;28;20040;-65
2023/04/28 03:25:47;;;;;;;1.42;0.95;;;19.50;53.30;;;;;;5075762;28;20057;-65
2023/04/28 03:28:13;;;;;;;3.05;1.20;;;19.50;53.30;;;;;;5074956;28;20048;-66
2023/04/28 03:30:38;;;;;;;1.73;1.00;;;19.60;53.30;;;;;;5094684;28;20044;-67
2023/04/28 03:33:04;;;;;;;2.35;1.10;;;19.60;53.30;;;;;;5096040;28;20044;-65
2023/04/28 03:35:30;;;;;;;3.10;1.20;;;19.60;53.30;;;;;;5111466;28;20513;-66
2023/04/28 03:37:55;;;;;;;2.53;1.40;;;19.60;53.30;;;;;;5116495;27;20043;-65
2023/04/28 03:40:21;;;;;;;2.70;1.50;;;19.60;53.30;;;;;;5115853;28;20054;-65
2023/04/28 03:42:46;;;;;;;1.50;1.30;;;19.70;53.30;;;;;;5114235;28;20078;-65
2023/04/28 03:45:12;;;;;;;2.30;1.13;;;19.70;53.30;;;;;;5115861;28;20040;-65
2023/04/28 03:47:38;;;;;;;1.20;1.08;;;19.70;53.30;;;;;;5116461;28;20126;-65
2023/04/28 03:50:03;;;;;;;1.48;1.00;;;19.70;53.30;;;;;;5113949;28;20035;-68
2023/04/28 03:52:29;;;;;;;2.20;1.30;;;19.70;53.30;;;;;;5116231;28;20043;-65
2023/04/28 03:54:55;;;;;;;2.83;1.20;;;19.70;53.20;;;;;;5115856;28;20067;-66
2023/04/28 03:57:21;;;;;;;2.28;0.93;;;19.70;53.30;;;;;;5115663;28;20462;-66
2023/04/28 03:59:46;;;;;;;5.50;1.30;;;19.80;53.30;;;;;;5115919;28;20474;-66
2023/04/28 04:02:12;;;;;;;1.95;1.20;;;19.80;53.30;;;;;;5096575;28;20075;-66
2023/04/28 04:04:37;;;;;;;1.42;1.00;;;19.80;53.20;;;;;;5092746;28;20039;-65
2023/04/28 04:07:03;;;;;;;2.38;0.82;;;19.80;53.20;;;;;;5094413;28;20131;-65
2023/04/28 04:09:28;;;;;;;1.52;0.88;;;19.90;53.30;;;;;;5095008;28;20080;-65
2023/04/28 04:11:54;;;;;;;2.13;1.17;;;19.80;53.20;;;;;;5094859;28;20403;-66
2023/04/28 04:14:19;;;;;;;1.55;1.00;;;19.80;53.20;;;;;;5094308;28;20084;-65
2023/04/28 04:16:46;;;;;;;2.03;1.05;;;19.80;53.20;;;;;;5095214;28;20055;-65
2023/04/28 04:19:12;;;;;;;3.25;1.10;;;19.80;53.20;;;;;;5094056;28;20035;-66
2023/04/28 04:21:37;;;;;;;1.67;1.13;;;19.90;53.20;;;;;;5095204;28;20040;-65
2023/04/28 04:24:03;;;;;;;1.38;1.00;;;19.90;53.10;;;;;;5094579;28;20052;-66
2023/04/28 04:26:29;;;;;;;1.80;0.98;;;19.90;53.10;;;;;;5094122;28;20503;-66
2023/04/28 04:28:54;;;;;;;1.85;1.10;;;19.90;53.10;;;;;;5095319;28;20114;-66
2023/04/28 04:31:21;;;;;;;1.60;1.02;;;19.90;53.10;;;;;;5094408;28;20087;-66
2023/04/28 04:33:47;;;;;;;1.15;0.80;;;19.90;53.10;;;;;;5094969;28;20505;-68
2023/04/28 04:36:12;;;;;;;1.83;0.80;;;19.90;53.00;;;;;;5094589;28;20032;-66
2023/04/28 04:38:38;;;;;;;1.70;1.00;;;19.90;53.00;;;;;;5093860;28;20079;-65
2023/04/28 04:41:03;;;;;;;2.47;1.08;;;19.90;53.00;;;;;;5094726;28;20048;-66
2023/04/28 04:43:29;;;;;;;1.85;1.15;;;19.90;52.90;;;;;;5093535;28;20075;-66
2023/04/28 04:45:55;;;;;;;1.45;1.20;;;19.90;52.90;;;;;;5093811;28;20039;-66
2023/04/28 04:48:20;;;;;;;1.92;1.00;;;19.90;52.90;;;;;;5093059;28;20047;-66
2023/04/28 04:50:46;;;;;;;2.13;1.20;;;19.90;52.90;;;;;;5094470;28;20430;-66
2023/04/28 04:53:12;;;;;;;1.92;0.95;;;19.90;52.90;;;;;;5093792;28;20480;-66
2023/04/28 04:55:37;;;;;;;2.15;0.95;;;19.90;52.90;;;;;;5094682;28;20044;-66
2023/04/28 04:58:03;;;;;;;1.65;0.98;;;20.00;52.90;;;;;;5094577;28;20084;-66
2023/04/28 05:00:28;;;;;;;2.47;1.10;;;20.00;52.90;;;;;;5104502;28;20051;-65
2023/04/28 05:02:54;;;;;;;1.85;1.00;;;20.00;52.90;;;;;;5114954;28;20088;-65
2023/04/28 05:05:20;;;;;;;1.90;1.02;;;20.00;52.90;;;;;;5110672;28;20403;-65
2023/04/28 05:07:45;;;;;;;2.10;0.90;;;20.00;52.80;;;;;;5092650;28;20051;-66
2023/04/28 05:10:11;;;;;;;1.90;1.00;;;20.00;52.80;;;;;;5094115;28;20377;-65
2023/04/28 05:12:37;;;;;;;1.60;1.00;;;20.00;52.80;;;;;;5094170;28;20127;-65
2023/04/28 05:15:05;;;;;;;1.80;1.20;;;20.00;52.80;;;;;;5093488;28;20584;-66
2023/04/28 05:17:31;;;;;;;2.08;1.02;;;20.00;52.70;;;;;;5094530;28;20044;-66
2023/04/28 05:19:56;;;;;;;1.83;1.10;;;20.00;52.70;;;;;;5093865;28;20386;-66
2023/04/28 05:22:22;;;;;;;0.95;0.85;;;20.00;52.70;;;;;;5091995;28;20047;-65
2023/04/28 05:24:47;;;;;;;3.53;1.10;;;20.00;52.60;;;;;;5093576;28;20403;-66
2023/04/28 05:27:13;;;;;;;2.58;1.25;;;20.00;52.60;;;;;;5093787;28;20122;-66
2023/04/28 05:29:38;;;;;;;1.90;1.10;;;20.00;52.60;;;;;;5093037;28;20480;-66
2023/04/28 05:32:04;;;;;;;2.05;1.08;;;20.00;52.60;;;;;;5093869;28;20052;-66
2023/04/28 05:34:30;;;;;;;1.38;1.00;;;20.00;52.60;;;;;;5093541;28;20418;-66
2023/04/28 05:36:56;;;;;;;1.70;1.00;;;20.00;52.50;;;;;;5092908;28;20544;-66
2023/04/28 05:39:21;;;;;;;2.80;1.17;;;20.00;52.50;;;;;;5094030;28;20549;-66
2023/04/28 05:41:47;;;;;;;1.95;1.00;;;20.00;52.50;;;;;;5093116;28;20071;-66
2023/04/28 05:44:12;;;;;;;2.03;1.23;;;20.10;52.50;;;;;;5093723;28;20047;-66
2023/04/28 05:46:38;;;;;;;2.50;1.20;;;20.10;52.50;;;;;;5111856;28;20043;-66
2023/04/28 05:49:03;;;;;;;3.38;1.00;;;20.10;52.50;;;;;;5113268;28;20467;-66
2023/04/28 05:51:29;;;;;;;1.75;1.13;;;20.10;52.50;;;;;;5113809;28;20048;-66
2023/04/28 05:53:54;;;;;;;1.70;0.95;;;20.10;52.50;;;;;;5113854;28;20122;-66
2023/04/28 05:56:20;;;;;;;2.30;1.00;;;20.10;52.50;;;;;;5112955;28;20483;-65
2023/04/28 05:58:46;;;;;;;3.20;1.15;;;20.10;52.40;;;;;;5114120;28;20099;-64
2023/04/28 06:01:12;;;;;;;2.85;1.38;;;20.10;52.40;;;;;;5113240;28;20094;-65
2023/04/28 06:03:40;;;;;;;5.20;1.30;;;20.10;52.40;;;;;;5112905;28;20546;-65
2023/04/28 06:06:06;;;;;;;2.33;1.17;;;20.10;52.40;;;;;;5112791;28;20044;-65
2023/04/28 06:08:32;;;;;;;4.05;1.25;;;20.10;52.30;;;;;;5112561;28;20140;-65
2023/04/28 06:10:57;;;;;;;2.72;1.20;;;20.10;52.30;;;;;;5112600;28;20554;-66
2023/04/28 06:13:23;;;;;;;3.70;1.15;;;20.10;52.30;;;;;;5112546;28;20036;-66
2023/04/28 06:15:48;;;;;;;3.15;1.15;;;20.10;52.30;;;;;;5113496;28;20475;-67
2023/04/28 06:18:15;;;;;;;4.53;1.02;;;20.10;52.40;;;;;;5111195;28;20426;-60
2023/04/28 06:20:41;;;;;;;2.35;1.13;;;20.20;52.40;;;;;;5113210;28;20113;-65
2023/04/28 06:23:07;;;;;;;3.28;1.20;;;20.20;52.40;;;;;;5113249;28;20043;-65
2023/04/28 06:25:36;;;;;;;2.58;1.10;;;20.20;52.50;;;;;;5112088;28;20051;-65
2023/04/28 06:28:02;;;;;;;2.10;1.20;;;20.20;52.50;;;;;;5105944;28;20036;-65
2023/04/28 06:30:28;;;;;;;2.70;0.95;;;20.20;52.50;;;;;;5092947;28;20055;-65
2023/04/28 06:32:54;;;;;;;5.00;1.20;;;20.20;52.60;;;;;;5092204;28;20391;-65
2023/04/28 06:35:21;;;;;;;2.60;0.95;;;20.20;52.60;;;;;;5092985;28;20080;-65
2023/04/28 06:37:46;;;;;;;4.15;1.20;;;20.20;53.30;;;;;;5092290;28;20127;-67
2023/04/28 06:40:12;;;;;;;7.03;1.58;;;20.20;52.70;;;;;;5091951;28;20498;-68
2023/04/28 06:42:37;;;;;;;4.22;1.40;;;20.20;52.80;;;;;;5092910;28;20040;-66
2023/04/28 06:45:03;;;;;;;4.25;1.15;;;20.20;52.90;;;;;;5091857;28;20467;-66
2023/04/28 06:47:29;;;;;;;4.88;1.30;;;20.20;53.00;;;;;;5092650;28;20036;-66
2023/04/28 06:49:55;;;;;;;3.60;1.25;;;20.20;53.20;;;;;;5092200;28;20040;-67
2023/04/28 06:52:21;;;;;;;6.10;1.10;;;20.30;53.40;;;;;;5092172;28;20055;-66
2023/04/28 06:54:46;;;;;;;4.45;1.05;;;20.20;53.50;;;;;;5092544;28;20173;-66
2023/04/28 06:57:12;;;;;;;2.28;1.67;;;20.30;53.70;;;;;;5072451;28;20040;-66
2023/04/28 06:59:38;;;;;;;5.07;1.35;;;20.30;53.50;;;;;;5070748;28;20439;-67
2023/04/28 07:02:04;;;;;;;2.65;0.98;;;20.30;53.50;;;;;;5090875;28;20047;-67
2023/04/28 07:04:29;;;;;;;3.65;1.35;;;20.30;53.60;;;;;;5092248;28;20044;-66
2023/04/28 07:06:55;;;;;;;2.35;1.48;;;20.30;53.60;;;;;;5091470;28;20043;-65
2023/04/28 07:09:20;;;;;;;4.47;1.20;;;20.30;53.60;;;;;;5091870;28;20048;-68
2023/04/28 07:11:46;;;;;;;5.25;1.40;;;20.30;53.60;;;;;;5091157;28;20095;-69
2023/04/28 07:14:11;;;;;;;6.32;1.33;;;20.30;53.50;;;;;;5090999;28;20097;-68
2023/04/28 07:16:37;;;;;;;4.03;1.75;;;20.40;53.60;;;;;;5092186;28;20052;-67
2023/04/28 07:19:02;;;;;;;5.43;1.40;;;20.40;53.50;;;;;;5091916;28;20047;-68
2023/04/28 07:21:28;;;;;;;4.45;1.55;;;20.40;53.60;;;;;;5102828;28;20484;-68
2023/04/28 07:23:56;;;;;;;2.42;1.00;;;20.40;53.60;;;;;;5107341;28;20044;-68
2023/04/28 07:26:22;;;;;;;2.85;1.17;;;20.40;53.60;;;;;;5092030;28;20055;-66
2023/04/28 07:28:48;;;;;;;2.33;1.10;;;20.40;53.60;;;;;;5090619;28;20036;-66
2023/04/28 07:31:14;;;;;;;2.35;1.25;;;20.40;53.60;;;;;;5091707;28;20492;-65
2023/04/28 07:33:40;;;;;;;3.00;1.40;;;20.40;53.40;;;;;;5092035;28;20133;-67
2023/04/28 07:36:06;;;;;;;4.50;1.27;;;20.40;53.50;;;;;;5090728;28;20499;-67
2023/04/28 07:38:35;;;;;;;5.07;1.30;;;20.40;53.60;;;;;;5092500;28;20036;-73
2023/04/28 07:41:02;;;;;;;4.45;1.00;;;20.40;53.70;;;;;;5090544;28;20558;-65
2023/04/28 07:43:28;;;;;;;3.20;1.40;;;20.40;53.70;;;;;;5091659;28;20036;-66
2023/04/28 07:45:53;;;;;;;3.97;1.13;;;20.40;53.70;;;;;;5092304;28;20115;-66
2023/04/28 07:48:19;;;;;;;5.15;1.40;;;20.40;53.50;;;;;;5091550;28;20046;-67
2023/04/28 07:50:45;;;;;;;3.00;1.30;;;20.40;53.50;;;;;;5096314;28;20593;-66
2023/04/28 07:53:11;;;;;;;4.45;1.15;;;20.30;53.50;;;;;;5095685;28;20044;-66
2023/04/28 07:55:36;;;;;;;5.10;1.52;;;20.40;53.40;;;;;;5095037;28;20039;-65
2023/04/28 07:58:02;;;;;;;4.53;1.45;;;20.40;53.40;;;;;;5095697;28;20040;-65
2023/04/28 08:00:27;;;;;;;3.80;1.38;;;20.40;53.40;;;;;;5095989;28;20036;-66
2023/04/28 08:02:53;;;;;;;1.88;1.13;;;20.40;53.40;;;;;;5094787;28;20487;-66
2023/04/28 08:05:18;;;;;;;6.82;1.67;;;20.40;53.50;;;;;;5095763;28;20035;-65
2023/04/28 08:07:44;;;;;;;4.03;1.30;;;20.40;53.40;;;;;;5093304;28;20078;-65
2023/04/28 08:10:10;;;;;;;5.15;1.23;;;20.40;53.40;;;;;;5094172;28;20048;-65
2023/04/28 08:12:36;;;;;;;3.83;1.38;;;20.40;53.30;;;;;;5090796;28;20502;-65
2023/04/28 08:15:02;;;;;;;2.78;1.10;;;20.30;54.00;;;;;;5082938;28;20090;-65
2023/04/28 08:17:28;;;;;;;4.68;1.52;;;20.30;53.20;;;;;;5091612;28;20059;-65
2023/04/28 08:19:53;;;;;;;4.22;1.45;;;20.40;53.30;;;;;;5094280;28;20097;-65
2023/04/28 08:22:19;;;;;;;5.63;1.42;;;20.40;53.30;;;;;;5090056;28;20483;-65
2023/04/28 08:24:45;;;;;;;3.28;1.73;;;20.40;53.20;;;;;;5087488;28;20044;-65
2023/04/28 08:27:11;;;;;;;3.13;1.48;;;20.30;53.10;;;;;;5094937;28;20133;-65
2023/04/28 08:29:37;;;;;;;3.53;1.20;;;20.40;53.20;;;;;;5093346;28;20071;-65
2023/04/28 08:32:05;;;;;;;4.80;1.20;;;20.30;53.20;;;;;;5093759;28;20114;-65
2023/04/28 08:34:32;;;;;;;3.63;1.30;;;20.40;53.10;;;;;;5095159;28;20522;-65
2023/04/28 08:36:57;;;;;;;5.53;1.45;;;20.30;53.00;;;;;;5094938;28;20040;-65
2023/04/28 08:39:25;;;;;;;3.33;1.27;;;20.30;53.00;;;;;;5094545;28;20055;-65
2023/04/28 08:41:51;;;;;;;3.70;1.37;;;20.30;53.00;;;;;;5095089;28;20087;-65
2023/04/28 08:44:17;;;;;;;3.65;1.50;;;20.30;53.00;;;;;;5094645;28;20294;-65
2023/04/28 08:46:43;;;;;;;3.97;1.58;;;20.30;53.00;;;;;;5092731;28;20106;-65
2023/04/28 08:49:15;;;;;;;3.33;2.35;;;20.30;52.90;;;;;;5093758;28;20051;-65
2023/04/28 08:51:46;;;;;;;3.72;1.95;;;20.30;52.30;;;;;;5093860;28;20048;-65
2023/04/28 08:54:13;;;;;;;2.92;1.45;;;20.30;52.30;;;;;;5094733;28;20043;-64
2023/04/28 08:56:39;;;;;;;4.20;1.90;;;20.30;52.30;;;;;;5093470;28;20040;-65
2023/04/28 08:59:04;;;;;;;4.78;2.00;;;20.30;52.40;;;;;;5093552;28;20097;-65
2023/04/28 09:01:30;;;;;;;2.95;1.80;;;20.30;52.40;;;;;;5093917;28;20056;-64
2023/04/28 09:03:56;;;;;;;3.35;1.88;;;20.30;52.50;;;;;;5094337;28;20036;-65
2023/04/28 09:06:22;;;;;;;4.72;2.17;;;20.30;52.60;;;;;;5093918;28;20047;-66
2023/04/28 09:08:47;;;;;;;5.65;1.92;;;20.30;52.60;;;;;;5094795;28;20036;-65
2023/04/28 09:11:15;;;;;;;3.03;1.40;;;20.30;52.70;;;;;;5094055;28;20075;-65
2023/04/28 09:13:40;;;;;;;3.45;2.00;;;20.30;52.70;;;;;;5093511;28;20097;-65
2023/04/28 09:16:06;;;;;;;3.78;1.88;;;20.30;52.70;;;;;;5093984;28;20044;-65
2023/04/28 09:18:32;;;;;;;4.35;2.15;;;20.30;52.70;;;;;;5094378;28;20040;-64
2023/04/28 09:21:07;;;;;;;8.73;1.70;;;20.30;52.70;;;;;;5093202;28;20373;-64
2023/04/28 09:23:33;;;;;;;6.60;1.70;;;20.30;52.90;;;;;;5094122;28;20077;-66
2023/04/28 09:25:59;;;;;;;6.00;1.92;;;20.30;52.90;;;;;;5089421;28;20055;-67
2023/04/28 09:28:25;;;;;;;3.45;1.60;;;20.30;52.90;;;;;;5091939;28;20407;-66
2023/04/28 09:30:50;;;;;;;3.88;1.55;;;20.30;53.00;;;;;;5090467;28;20185;-65
2023/04/28 09:33:16;;;;;;;6.63;1.80;;;20.30;53.00;;;;;;5091607;28;20071;-64
2023/04/28 09:35:44;;;;;;;5.22;1.95;;;20.30;53.00;;;;;;5087999;28;20387;-66
2023/04/28 09:38:09;;;;;;;3.40;1.40;;;20.30;53.00;;;;;;5092885;28;20373;-64
2023/04/28 09:40:54;;;;;;;3.30;1.58;;;20.30;52.80;;;;;;5093751;28;20494;-64
2023/04/28 09:43:30;;;;;;;6.38;1.95;;;20.40;52.90;;;;;;5093957;28;20059;-64
2023/04/28 09:46:00;;;;;;;8.20;1.50;;;20.50;52.80;;;;;;5106445;28;20082;-64
2023/04/28 09:48:30;;;;;;;3.53;1.50;;;20.50;52.70;;;;;;5113226;28;20040;-64
2023/04/28 09:50:56;;;;;;;3.95;1.80;;;20.50;52.70;;;;;;5113470;28;20035;-65
2023/04/28 09:53:25;;;;;;;6.05;1.80;;;20.50;52.50;;;;;;5113792;28;20116;-64
2023/04/28 09:55:52;;;;;;;3.55;1.95;;;20.50;51.80;;;;;;5099410;28;20086;-64
2023/04/28 09:58:19;;;;;;;4.20;1.75;;;20.50;51.90;;;;;;5090799;28;20047;-63
2023/04/28 10:00:45;;;;;;;3.40;1.95;;;20.50;51.90;;;;;;5083539;28;20044;-64
2023/04/28 10:03:10;;;;;;;4.63;2.25;;;20.40;51.90;;;;;;5090447;28;20039;-63
2023/04/28 10:05:38;;;;;;;5.60;2.05;;;20.40;52.00;;;;;;5091212;28;20051;-64
2023/04/28 10:08:04;;;;;;;3.58;1.70;;;20.40;52.10;;;;;;5091884;28;20032;-64
2023/04/28 10:10:30;;;;;;;4.43;2.10;;;20.40;52.20;;;;;;5092180;28;20063;-64
2023/04/28 10:12:55;;;;;;;5.32;1.80;;;20.40;52.30;;;;;;5091063;28;20415;-64
2023/04/28 10:15:22;;;;;;;2.92;1.70;;;20.40;52.40;;;;;;5091930;28;20123;-65
2023/04/28 10:17:47;;;;;;;6.63;2.20;;;20.30;52.40;;;;;;5091301;28;20048;-66
2023/04/28 10:20:14;;;;;;;3.78;2.08;;;20.40;52.50;;;;;;5090669;28;20051;-65
2023/04/28 10:23:22;;;;;;;3.85;1.70;;;20.30;52.50;;;;;;5091378;28;20044;-65
2023/04/28 10:25:48;;;;;;;3.92;2.40;;;20.30;52.70;;;;;;5086494;28;20040;-65
2023/04/28 10:28:13;;;;;;;4.93;2.10;;;20.30;52.90;;;;;;5091439;28;20048;-65
2023/04/28 10:30:39;;;;;;;4.75;1.58;;;20.40;53.30;;;;;;5090977;28;20511;-65
2023/04/28 10:33:10;;;;;;;3.90;1.80;;;20.40;53.30;;;;;;5092447;28;20384;-65
2023/04/28 10:35:41;;;;;;;6.85;2.00;;;20.40;53.30;;;;;;5092871;28;20048;-65
2023/04/28 10:38:17;;;;;;;4.05;2.28;;;20.40;53.30;;;;;;5091984;28;20039;-65
2023/04/28 10:40:53;;;;;;;4.53;2.03;;;20.40;53.30;;;;;;5092636;28;20040;-65
2023/04/28 10:43:24;;;;;;;4.95;2.30;;;20.50;53.40;;;;;;5092760;28;20043;-66
2023/04/28 10:45:53;;;;;;;4.70;2.25;;;20.50;53.50;;;;;;5092136;28;20042;-66
2023/04/28 10:48:24;;;;;;;5.95;2.35;;;20.50;53.60;;;;;;5092236;28;20550;-66
2023/04/28 10:51:02;;;;;;;3.72;2.25;;;20.50;53.60;;;;;;5092728;28;20093;-65
2023/04/28 10:53:43;;;;;;;8.15;2.30;;;20.50;53.80;;;;;;5092312;28;20040;-66
2023/04/28 10:56:18;;;;;;;3.78;2.25;;;20.50;53.70;;;;;;5092476;28;20055;-67
2023/04/28 10:58:59;;;;;;;5.97;2.63;;;20.50;53.70;;;;;;5091317;28;20132;-63
2023/04/28 11:01:24;;;;;;;4.93;2.50;;;20.50;53.70;;;;;;5090999;28;20043;-63
2023/04/28 11:04:10;;;;;;;5.15;2.42;;;20.50;53.80;;;;;;5091793;28;20036;-64
2023/04/28 11:06:38;;;;;;;4.38;2.40;;;20.50;54.00;;;;;;5089284;28;20396;-66
2023/04/28 11:09:30;;;;;;;6.40;2.50;;;20.50;54.00;;;;;;5091387;28;20044;-65
2023/04/28 11:11:58;;;;;;;5.38;2.38;;;20.50;54.10;;;;;;5060218;28;20048;-64
2023/04/28 11:14:24;;;;;;;;;;;20.50;54.10;;;;;;5091387;28;20051;-64
2023/04/28 11:16:53;;;;;;;8.10;2.10;;;20.50;54.30;;;;;;5091342;28;19920;-65
2023/04/28 11:19:20;;;;;;;6.25;2.30;;;20.50;54.30;;;;;;5091256;28;20036;-65
2023/04/28 11:21:49;;;;;;;4.45;2.20;;;20.50;54.40;;;;;;5091893;28;20043;-65
2023/04/28 11:24:15;;;;;;;4.88;2.30;;;20.60;54.60;;;;;;5092674;28;20106;-66
2023/04/28 11:26:41;;;;;;;3.70;2.10;;;20.60;54.60;;;;;;5094827;28;20142;-65
2023/04/28 11:29:07;;;;;;;6.55;2.30;;;20.60;54.70;;;;;;5096176;28;20043;-64
2023/04/28 11:31:33;;;;;;;6.70;2.47;;;20.60;54.70;;;;;;5096409;28;20047;-64
2023/04/28 11:33:59;;;;;;;3.67;1.98;;;20.60;54.80;;;;;;5095106;28;20032;-64
2023/04/28 11:36:31;;;;;;;5.28;1.92;;;20.60;54.80;;;;;;5096129;28;20403;-64
2023/04/28 11:38:57;;;;;;;3.88;2.15;;;20.60;54.90;;;;;;5095574;28;20518;-64
2023/04/28 11:41:23;;;;;;;6.50;2.28;;;20.60;54.90;;;;;;5105476;28;20123;-64
2023/04/28 11:43:48;;;;;;;5.25;2.28;;;20.60;55.00;;;;;;5116083;28;20160;-64
2023/04/28 11:46:21;;;;;;;4.32;1.95;;;20.60;55.00;;;;;;5110853;28;20408;-64
2023/04/28 11:48:47;;;;;;;6.13;1.90;;;20.60;55.10;;;;;;5094760;28;20118;-66
2023/04/28 11:51:32;;;;;;;4.35;1.98;;;20.60;55.10;;;;;;5095435;28;20127;-66
2023/04/28 11:53:58;;;;;;;6.13;2.35;;;20.60;55.30;;;;;;5094976;28;20157;-66
2023/04/28 11:56:24;;;;;;;4.95;2.15;;;20.60;55.30;;;;;;5095060;28;20051;-67
2023/04/28 11:59:00;;;;;;;3.42;1.90;;;20.60;55.30;;;;;;5095821;28;20032;-66
2023/04/28 12:01:26;;;;;;;4.68;1.80;;;20.60;55.40;;;;;;5094975;28;20047;-67
2023/04/28 12:03:51;;;;;;;5.95;2.22;;;20.60;55.40;;;;;;5099515;28;20032;-68
2023/04/28 12:06:17;;;;;;;4.10;1.90;;;20.60;55.40;;;;;;5115941;28;20040;-67
2023/04/28 12:08:43;;;;;;;5.95;2.03;;;20.60;55.50;;;;;;5114987;28;20040;-67
2023/04/28 12:11:12;;;;;;;4.07;2.10;;;20.60;55.50;;;;;;5114541;28;20050;-64
2023/04/28 12:13:37;;;;;;;5.10;1.85;;;20.60;55.60;;;;;;5115711;28;20040;-65
2023/04/28 12:16:06;;;;;;;2.97;1.88;;;20.60;55.60;;;;;;5113530;28;20040;-65
2023/04/28 12:18:35;;;;;;;4.55;2.00;;;20.60;55.60;;;;;;5115532;28;20039;-65
2023/04/28 12:21:01;;;;;;;4.13;1.98;;;20.60;55.70;;;;;;5115443;28;20051;-65
2023/04/28 12:23:34;;;;;;;5.35;2.00;;;20.50;55.60;;;;;;5114374;28;20573;-66
2023/04/28 12:26:00;;;;;;;3.72;2.00;;;20.50;55.60;;;;;;5113945;28;20086;-66
2023/04/28 12:28:39;;;;;;;3.47;1.85;;;20.50;55.70;;;;;;5111244;28;20068;-66
2023/04/28 12:31:05;;;;;;;2.95;1.80;;;20.50;55.70;;;;;;5091508;28;20036;-66
2023/04/28 12:33:36;;;;;;;3.42;1.67;;;20.50;55.70;;;;;;5097165;28;20051;-66
2023/04/28 12:36:01;;;;;;;4.13;2.05;;;20.50;55.80;;;;;;5092839;28;20074;-69
2023/04/28 12:38:27;;;;;;;4.30;2.17;;;20.50;55.80;;;;;;5094229;28;20476;-67
2023/04/28 12:40:53;;;;;;;3.95;2.00;;;20.50;55.90;;;;;;5074849;28;20074;-65
2023/04/28 12:43:20;;;;;;;3.47;1.70;;;20.50;56.00;;;;;;5072908;28;20041;-65
2023/04/28 12:45:45;;;;;;;4.55;1.98;;;20.40;56.80;;;;;;5093045;28;20044;-69